sensor_id;sensor_type;location;lat;lon;timestamp;P1;durP1;ratioP1;P2;durP2;ratioP2
75007;SDS011;63554;48.940;12.050;2022-12-18T00:02:36;4.30;;;3.00;;
75007;SDS011;63554;48.940;12.050;2022-12-18T00:06:40;4.35;;;3.95;;
75007;SDS011;63554;48.940;12.050;2022-12-18T00:10:45;5.50;;;4.43;;
75007;SDS011;63554;48.940;12.050;2022-12-18T00:14:49;3.35;;;3.17;;
75007;SDS011;63554;48.940;12.050;2022-12-18T00:18:53;8.07;;;5.13;;
75007;SDS011;63554;48.940;12.050;2022-12-18T00:22:57;5.40;;;5.00;;
75007;SDS011;63554;48.940;12.050;2022-12-18T00:27:00;5.80;;;5.28;;
75007;SDS011;63554;48.940;12.050;2022-12-18T00:31:05;2.88;;;2.60;;
75007;SDS011;63554;48.940;12.050;2022-12-18T00:35:09;3.33;;;3.13;;
75007;SDS011;63554;48.940;12.050;2022-12-18T00:39:12;7.47;;;5.15;;
75007;SDS011;63554;48.940;12.050;2022-12-18T00:43:15;7.13;;;2.90;;
75007;SDS011;63554;48.940;12.050;2022-12-18T00:47:19;6.60;;;2.65;;
75007;SDS011;63554;48.940;12.050;2022-12-18T00:51:21;4.10;;;3.85;;
75007;SDS011;63554;48.940;12.050;2022-12-18T00:55:24;4.68;;;3.67;;
75007;SDS011;63554;48.940;12.050;2022-12-18T00:59:27;3.33;;;2.35;;
75007;SDS011;63554;48.940;12.050;2022-12-18T01:03:32;3.15;;;2.95;;
75007;SDS011;63554;48.940;12.050;2022-12-18T01:07:35;5.10;;;4.35;;
75007;SDS011;63554;48.940;12.050;2022-12-18T01:11:38;5.35;;;4.38;;
75007;SDS011;63554;48.940;12.050;2022-12-18T01:15:47;6.78;;;4.32;;
75007;SDS011;63554;48.940;12.050;2022-12-18T01:19:52;3.45;;;3.28;;
75007;SDS011;63554;48.940;12.050;2022-12-18T01:23:56;4.47;;;4.18;;
75007;SDS011;63554;48.940;12.050;2022-12-18T01:27:59;5.57;;;5.18;;
75007;SDS011;63554;48.940;12.050;2022-12-18T01:32:02;3.30;;;2.95;;
75007;SDS011;63554;48.940;12.050;2022-12-18T01:36:07;4.05;;;3.78;;
75007;SDS011;63554;48.940;12.050;2022-12-18T01:40:11;5.30;;;3.92;;
75007;SDS011;63554;48.940;12.050;2022-12-18T01:48:55;3.65;;;3.33;;
75007;SDS011;63554;48.940;12.050;2022-12-18T01:53:02;2.60;;;2.13;;
75007;SDS011;63554;48.940;12.050;2022-12-18T01:57:08;5.13;;;2.33;;
75007;SDS011;63554;48.940;12.050;2022-12-18T02:01:11;3.53;;;3.25;;
75007;SDS011;63554;48.940;12.050;2022-12-18T02:05:15;3.10;;;2.95;;
75007;SDS011;63554;48.940;12.050;2022-12-18T02:09:22;4.32;;;3.92;;
75007;SDS011;63554;48.940;12.050;2022-12-18T02:13:32;2.97;;;2.88;;
75007;SDS011;63554;48.940;12.050;2022-12-18T02:17:41;3.20;;;3.00;;
75007;SDS011;63554;48.940;12.050;2022-12-18T02:21:51;3.58;;;3.10;;
75007;SDS011;63554;48.940;12.050;2022-12-18T02:26:06;7.32;;;5.45;;
75007;SDS011;63554;48.940;12.050;2022-12-18T02:30:16;3.85;;;3.50;;
75007;SDS011;63554;48.940;12.050;2022-12-18T02:34:21;3.08;;;2.63;;
75007;SDS011;63554;48.940;12.050;2022-12-18T02:38:28;3.70;;;3.40;;
75007;SDS011;63554;48.940;12.050;2022-12-18T02:42:34;3.80;;;2.70;;
75007;SDS011;63554;48.940;12.050;2022-12-18T02:46:37;3.55;;;3.25;;
75007;SDS011;63554;48.940;12.050;2022-12-18T02:50:44;3.47;;;3.20;;
75007;SDS011;63554;48.940;12.050;2022-12-18T02:54:56;2.80;;;2.70;;
75007;SDS011;63554;48.940;12.050;2022-12-18T02:59:11;3.15;;;3.00;;
75007;SDS011;63554;48.940;12.050;2022-12-18T03:03:21;3.83;;;2.83;;
75007;SDS011;63554;48.940;12.050;2022-12-18T03:07:34;3.58;;;3.15;;
75007;SDS011;63554;48.940;12.050;2022-12-18T03:11:40;3.25;;;3.10;;
75007;SDS011;63554;48.940;12.050;2022-12-18T03:16:08;3.15;;;2.88;;
75007;SDS011;63554;48.940;12.050;2022-12-18T03:20:15;4.13;;;3.83;;
75007;SDS011;63554;48.940;12.050;2022-12-18T03:24:21;2.08;;;1.98;;
75007;SDS011;63554;48.940;12.050;2022-12-18T03:28:26;2.63;;;2.47;;
75007;SDS011;63554;48.940;12.050;2022-12-18T03:32:36;4.38;;;3.72;;
75007;SDS011;63554;48.940;12.050;2022-12-18T03:36:45;3.95;;;3.42;;
75007;SDS011;63554;48.940;12.050;2022-12-18T03:40:51;2.55;;;1.90;;
75007;SDS011;63554;48.940;12.050;2022-12-18T03:45:00;1.95;;;1.95;;
75007;SDS011;63554;48.940;12.050;2022-12-18T03:49:11;4.40;;;2.78;;
75007;SDS011;63554;48.940;12.050;2022-12-18T03:53:22;3.67;;;3.47;;
75007;SDS011;63554;48.940;12.050;2022-12-18T03:57:31;3.50;;;3.20;;
75007;SDS011;63554;48.940;12.050;2022-12-18T04:01:36;6.97;;;3.53;;
75007;SDS011;63554;48.940;12.050;2022-12-18T04:05:43;5.53;;;4.03;;
75007;SDS011;63554;48.940;12.050;2022-12-18T04:09:48;2.78;;;2.63;;
75007;SDS011;63554;48.940;12.050;2022-12-18T04:13:55;3.38;;;3.05;;
75007;SDS011;63554;48.940;12.050;2022-12-18T04:17:58;3.72;;;3.35;;
75007;SDS011;63554;48.940;12.050;2022-12-18T04:22:02;2.58;;;2.47;;
75007;SDS011;63554;48.940;12.050;2022-12-18T04:26:05;4.63;;;2.95;;
75007;SDS011;63554;48.940;12.050;2022-12-18T04:30:08;5.88;;;4.05;;
75007;SDS011;63554;48.940;12.050;2022-12-18T04:34:11;6.15;;;2.42;;
75007;SDS011;63554;48.940;12.050;2022-12-18T04:38:15;3.80;;;2.50;;
75007;SDS011;63554;48.940;12.050;2022-12-18T04:42:18;2.25;;;1.85;;
75007;SDS011;63554;48.940;12.050;2022-12-18T04:46:21;1.95;;;1.85;;
75007;SDS011;63554;48.940;12.050;2022-12-18T04:50:23;2.78;;;2.67;;
75007;SDS011;63554;48.940;12.050;2022-12-18T04:54:27;4.40;;;1.70;;
75007;SDS011;63554;48.940;12.050;2022-12-18T04:58:30;3.05;;;2.85;;
75007;SDS011;63554;48.940;12.050;2022-12-18T05:02:33;2.10;;;1.98;;
75007;SDS011;63554;48.940;12.050;2022-12-18T05:06:36;3.15;;;2.50;;
75007;SDS011;63554;48.940;12.050;2022-12-18T05:10:40;4.35;;;3.97;;
75007;SDS011;63554;48.940;12.050;2022-12-18T05:14:42;3.63;;;2.17;;
75007;SDS011;63554;48.940;12.050;2022-12-18T05:18:45;6.97;;;4.22;;
75007;SDS011;63554;48.940;12.050;2022-12-18T05:22:48;6.15;;;3.08;;
75007;SDS011;63554;48.940;12.050;2022-12-18T05:26:52;7.00;;;3.38;;
75007;SDS011;63554;48.940;12.050;2022-12-18T05:30:55;4.15;;;3.38;;
75007;SDS011;63554;48.940;12.050;2022-12-18T05:34:59;4.45;;;3.28;;
75007;SDS011;63554;48.940;12.050;2022-12-18T05:39:02;2.15;;;2.05;;
75007;SDS011;63554;48.940;12.050;2022-12-18T05:43:07;5.03;;;3.80;;
75007;SDS011;63554;48.940;12.050;2022-12-18T05:47:10;13.77;;;3.35;;
75007;SDS011;63554;48.940;12.050;2022-12-18T05:51:13;2.38;;;2.28;;
75007;SDS011;63554;48.940;12.050;2022-12-18T05:55:17;2.65;;;2.22;;
75007;SDS011;63554;48.940;12.050;2022-12-18T05:59:21;2.83;;;2.63;;
75007;SDS011;63554;48.940;12.050;2022-12-18T06:03:24;2.53;;;2.42;;
75007;SDS011;63554;48.940;12.050;2022-12-18T06:07:33;6.32;;;3.33;;
75007;SDS011;63554;48.940;12.050;2022-12-18T06:11:36;7.25;;;4.70;;
75007;SDS011;63554;48.940;12.050;2022-12-18T06:15:41;4.25;;;3.88;;
75007;SDS011;63554;48.940;12.050;2022-12-18T06:19:43;3.28;;;2.60;;
75007;SDS011;63554;48.940;12.050;2022-12-18T06:23:46;3.30;;;2.58;;
75007;SDS011;63554;48.940;12.050;2022-12-18T06:27:49;3.40;;;3.17;;
75007;SDS011;63554;48.940;12.050;2022-12-18T06:31:53;2.83;;;2.70;;
75007;SDS011;63554;48.940;12.050;2022-12-18T06:35:59;4.13;;;3.78;;
75007;SDS011;63554;48.940;12.050;2022-12-18T06:40:03;5.22;;;3.42;;
75007;SDS011;63554;48.940;12.050;2022-12-18T06:44:06;4.25;;;3.85;;
75007;SDS011;63554;48.940;12.050;2022-12-18T06:48:11;3.20;;;3.00;;
75007;SDS011;63554;48.940;12.050;2022-12-18T06:52:13;3.80;;;3.47;;
75007;SDS011;63554;48.940;12.050;2022-12-18T06:56:16;4.25;;;3.97;;
75007;SDS011;63554;48.940;12.050;2022-12-18T07:00:19;4.15;;;3.78;;
75007;SDS011;63554;48.940;12.050;2022-12-18T07:04:24;4.03;;;2.78;;
75007;SDS011;63554;48.940;12.050;2022-12-18T07:08:30;2.70;;;2.50;;
75007;SDS011;63554;48.940;12.050;2022-12-18T07:12:32;3.33;;;3.13;;
75007;SDS011;63554;48.940;12.050;2022-12-18T07:16:35;2.95;;;2.78;;
75007;SDS011;63554;48.940;12.050;2022-12-18T07:20:39;2.50;;;2.40;;
75007;SDS011;63554;48.940;12.050;2022-12-18T07:24:42;3.40;;;2.65;;
75007;SDS011;63554;48.940;12.050;2022-12-18T07:28:45;3.08;;;2.63;;
75007;SDS011;63554;48.940;12.050;2022-12-18T07:32:48;3.92;;;3.72;;
75007;SDS011;63554;48.940;12.050;2022-12-18T07:36:52;4.90;;;3.50;;
75007;SDS011;63554;48.940;12.050;2022-12-18T07:40:59;2.72;;;2.53;;
75007;SDS011;63554;48.940;12.050;2022-12-18T07:45:02;4.07;;;3.75;;
75007;SDS011;63554;48.940;12.050;2022-12-18T07:49:06;3.58;;;3.22;;
75007;SDS011;63554;48.940;12.050;2022-12-18T07:53:10;4.97;;;4.55;;
75007;SDS011;63554;48.940;12.050;2022-12-18T07:57:13;2.63;;;2.42;;
75007;SDS011;63554;48.940;12.050;2022-12-18T08:01:37;5.43;;;3.65;;
75007;SDS011;63554;48.940;12.050;2022-12-18T08:05:40;2.78;;;2.40;;
75007;SDS011;63554;48.940;12.050;2022-12-18T08:09:44;5.80;;;4.22;;
75007;SDS011;63554;48.940;12.050;2022-12-18T08:13:47;3.47;;;3.17;;
75007;SDS011;63554;48.940;12.050;2022-12-18T08:17:50;3.63;;;2.97;;
75007;SDS011;63554;48.940;12.050;2022-12-18T08:21:52;2.22;;;2.03;;
75007;SDS011;63554;48.940;12.050;2022-12-18T08:25:56;0.90;;;0.90;;
75007;SDS011;63554;48.940;12.050;2022-12-18T08:30:00;0.10;;;0.10;;
75007;SDS011;63554;48.940;12.050;2022-12-18T08:34:04;1.02;;;0.93;;
75007;SDS011;63554;48.940;12.050;2022-12-18T08:38:07;2.53;;;1.13;;
75007;SDS011;63554;48.940;12.050;2022-12-18T08:42:11;0.52;;;0.52;;
75007;SDS011;63554;48.940;12.050;2022-12-18T08:46:32;2.67;;;1.73;;
75007;SDS011;63554;48.940;12.050;2022-12-18T08:50:37;0.20;;;0.20;;
75007;SDS011;63554;48.940;12.050;2022-12-18T08:54:40;1.08;;;1.02;;
75007;SDS011;63554;48.940;12.050;2022-12-18T08:58:44;0.90;;;0.85;;
75007;SDS011;63554;48.940;12.050;2022-12-18T09:02:46;0.60;;;0.60;;
75007;SDS011;63554;48.940;12.050;2022-12-18T09:06:49;4.97;;;1.77;;
75007;SDS011;63554;48.940;12.050;2022-12-18T09:10:52;4.13;;;3.50;;
75007;SDS011;63554;48.940;12.050;2022-12-18T09:14:56;0.85;;;0.85;;
75007;SDS011;63554;48.940;12.050;2022-12-18T09:18:59;1.67;;;1.58;;
75007;SDS011;63554;48.940;12.050;2022-12-18T09:23:03;1.38;;;1.25;;
75007;SDS011;63554;48.940;12.050;2022-12-18T09:27:06;2.03;;;1.92;;
75007;SDS011;63554;48.940;12.050;2022-12-18T09:31:11;0.98;;;0.98;;
75007;SDS011;63554;48.940;12.050;2022-12-18T09:35:18;1.80;;;0.90;;
75007;SDS011;63554;48.940;12.050;2022-12-18T09:39:21;2.80;;;2.47;;
75007;SDS011;63554;48.940;12.050;2022-12-18T09:43:26;1.15;;;1.10;;
75007;SDS011;63554;48.940;12.050;2022-12-18T09:47:34;1.27;;;0.77;;
75007;SDS011;63554;48.940;12.050;2022-12-18T09:51:42;0.45;;;0.43;;
75007;SDS011;63554;48.940;12.050;2022-12-18T09:55:50;0.30;;;0.30;;
75007;SDS011;63554;48.940;12.050;2022-12-18T09:59:55;5.82;;;1.38;;
75007;SDS011;63554;48.940;12.050;2022-12-18T10:04:02;0.82;;;0.82;;
75007;SDS011;63554;48.940;12.050;2022-12-18T10:08:08;1.05;;;0.45;;
75007;SDS011;63554;48.940;12.050;2022-12-18T10:12:17;0.57;;;0.57;;
75007;SDS011;63554;48.940;12.050;2022-12-18T10:16:28;0.57;;;0.55;;
75007;SDS011;63554;48.940;12.050;2022-12-18T10:20:44;0.10;;;0.10;;
75007;SDS011;63554;48.940;12.050;2022-12-18T10:24:53;1.40;;;1.30;;
75007;SDS011;63554;48.940;12.050;2022-12-18T10:29:00;0.63;;;0.63;;
75007;SDS011;63554;48.940;12.050;2022-12-18T10:33:08;0.45;;;0.45;;
75007;SDS011;63554;48.940;12.050;2022-12-18T10:37:16;1.65;;;1.48;;
75007;SDS011;63554;48.940;12.050;2022-12-18T10:41:23;5.93;;;1.67;;
75007;SDS011;63554;48.940;12.050;2022-12-18T10:45:29;1.48;;;1.40;;
75007;SDS011;63554;48.940;12.050;2022-12-18T10:49:32;3.90;;;1.55;;
75007;SDS011;63554;48.940;12.050;2022-12-18T10:53:38;0.25;;;0.25;;
75007;SDS011;63554;48.940;12.050;2022-12-18T10:57:44;1.05;;;1.02;;
75007;SDS011;63554;48.940;12.050;2022-12-18T11:01:47;5.97;;;2.35;;
75007;SDS011;63554;48.940;12.050;2022-12-18T11:05:52;1.83;;;1.15;;
75007;SDS011;63554;48.940;12.050;2022-12-18T11:10:15;1.25;;;0.75;;
75007;SDS011;63554;48.940;12.050;2022-12-18T11:14:21;0.77;;;0.77;;
75007;SDS011;63554;48.940;12.050;2022-12-18T11:18:27;0.75;;;0.75;;
75007;SDS011;63554;48.940;12.050;2022-12-18T11:22:32;4.53;;;3.22;;
75007;SDS011;63554;48.940;12.050;2022-12-18T11:26:38;1.88;;;1.65;;
75007;SDS011;63554;48.940;12.050;2022-12-18T11:30:44;1.70;;;1.25;;
75007;SDS011;63554;48.940;12.050;2022-12-18T11:34:48;1.50;;;1.40;;
75007;SDS011;63554;48.940;12.050;2022-12-18T11:38:59;1.85;;;0.40;;
75007;SDS011;63554;48.940;12.050;2022-12-18T11:43:10;0.82;;;0.82;;
75007;SDS011;63554;48.940;12.050;2022-12-18T11:47:22;0.35;;;0.35;;
75007;SDS011;63554;48.940;12.050;2022-12-18T11:51:31;0.40;;;0.40;;
75007;SDS011;63554;48.940;12.050;2022-12-18T11:55:39;4.53;;;1.45;;
75007;SDS011;63554;48.940;12.050;2022-12-18T11:59:53;1.95;;;1.85;;
75007;SDS011;63554;48.940;12.050;2022-12-18T12:04:09;3.70;;;2.95;;
75007;SDS011;63554;48.940;12.050;2022-12-18T12:08:29;0.95;;;0.95;;
75007;SDS011;63554;48.940;12.050;2022-12-18T12:12:47;1.75;;;1.65;;
75007;SDS011;63554;48.940;12.050;2022-12-18T12:17:09;2.53;;;1.90;;
75007;SDS011;63554;48.940;12.050;2022-12-18T12:21:20;0.88;;;0.75;;
75007;SDS011;63554;48.940;12.050;2022-12-18T12:25:33;4.22;;;1.98;;
75007;SDS011;63554;48.940;12.050;2022-12-18T12:29:46;1.63;;;1.55;;
75007;SDS011;63554;48.940;12.050;2022-12-18T12:34:00;1.63;;;1.52;;
75007;SDS011;63554;48.940;12.050;2022-12-18T12:38:11;0.50;;;0.50;;
75007;SDS011;63554;48.940;12.050;2022-12-18T12:42:18;1.25;;;1.20;;
75007;SDS011;63554;48.940;12.050;2022-12-18T12:46:51;0.25;;;0.25;;
75007;SDS011;63554;48.940;12.050;2022-12-18T12:50:56;1.58;;;1.48;;
75007;SDS011;63554;48.940;12.050;2022-12-18T12:55:00;1.00;;;1.00;;
75007;SDS011;63554;48.940;12.050;2022-12-18T12:59:15;0.70;;;0.68;;
75007;SDS011;63554;48.940;12.050;2022-12-18T13:03:28;1.25;;;1.08;;
75007;SDS011;63554;48.940;12.050;2022-12-18T13:07:47;0.75;;;0.73;;
75007;SDS011;63554;48.940;12.050;2022-12-18T13:11:57;2.95;;;2.05;;
75007;SDS011;63554;48.940;12.050;2022-12-18T13:16:23;1.35;;;1.25;;
75007;SDS011;63554;48.940;12.050;2022-12-18T13:20:31;1.23;;;1.15;;
75007;SDS011;63554;48.940;12.050;2022-12-18T13:24:38;0.30;;;0.30;;
75007;SDS011;63554;48.940;12.050;2022-12-18T13:28:50;0.93;;;0.93;;
75007;SDS011;63554;48.940;12.050;2022-12-18T13:33:05;2.38;;;2.28;;
75007;SDS011;63554;48.940;12.050;2022-12-18T13:38:02;1.20;;;1.10;;
75007;SDS011;63554;48.940;12.050;2022-12-18T13:42:36;3.47;;;1.73;;
75007;SDS011;63554;48.940;12.050;2022-12-18T13:47:00;2.47;;;1.33;;
75007;SDS011;63554;48.940;12.050;2022-12-18T13:51:05;0.15;;;0.15;;
75007;SDS011;63554;48.940;12.050;2022-12-18T13:55:14;1.10;;;1.00;;
75007;SDS011;63554;48.940;12.050;2022-12-18T13:59:22;1.48;;;1.45;;
75007;SDS011;63554;48.940;12.050;2022-12-18T14:03:27;0.68;;;0.65;;
75007;SDS011;63554;48.940;12.050;2022-12-18T14:07:34;2.15;;;1.80;;
75007;SDS011;63554;48.940;12.050;2022-12-18T14:11:49;3.78;;;1.33;;
75007;SDS011;63554;48.940;12.050;2022-12-18T14:16:17;1.63;;;1.50;;
75007;SDS011;63554;48.940;12.050;2022-12-18T14:20:22;1.15;;;1.05;;
75007;SDS011;63554;48.940;12.050;2022-12-18T14:24:26;3.13;;;1.48;;
75007;SDS011;63554;48.940;12.050;2022-12-18T14:28:42;3.35;;;1.13;;
75007;SDS011;63554;48.940;12.050;2022-12-18T14:33:00;0.65;;;0.65;;
75007;SDS011;63554;48.940;12.050;2022-12-18T14:37:04;1.55;;;1.40;;
75007;SDS011;63554;48.940;12.050;2022-12-18T14:41:11;0.63;;;0.63;;
75007;SDS011;63554;48.940;12.050;2022-12-18T14:45:34;0.47;;;0.47;;
75007;SDS011;63554;48.940;12.050;2022-12-18T14:49:45;1.38;;;1.23;;
75007;SDS011;63554;48.940;12.050;2022-12-18T14:53:48;1.52;;;1.35;;
75007;SDS011;63554;48.940;12.050;2022-12-18T14:57:56;1.17;;;1.13;;
75007;SDS011;63554;48.940;12.050;2022-12-18T15:02:01;1.75;;;1.65;;
75007;SDS011;63554;48.940;12.050;2022-12-18T15:06:17;1.10;;;1.08;;
75007;SDS011;63554;48.940;12.050;2022-12-18T15:10:27;0.95;;;0.95;;
75007;SDS011;63554;48.940;12.050;2022-12-18T15:14:34;0.95;;;0.95;;
75007;SDS011;63554;48.940;12.050;2022-12-18T15:18:41;5.80;;;3.08;;
75007;SDS011;63554;48.940;12.050;2022-12-18T15:22:47;4.47;;;3.00;;
75007;SDS011;63554;48.940;12.050;2022-12-18T15:26:50;1.52;;;1.42;;
75007;SDS011;63554;48.940;12.050;2022-12-18T15:31:03;1.30;;;1.27;;
75007;SDS011;63554;48.940;12.050;2022-12-18T15:35:09;3.72;;;2.35;;
75007;SDS011;63554;48.940;12.050;2022-12-18T15:39:18;1.58;;;1.38;;
75007;SDS011;63554;48.940;12.050;2022-12-18T15:43:21;2.97;;;2.42;;
75007;SDS011;63554;48.940;12.050;2022-12-18T15:47:38;2.15;;;2.05;;
75007;SDS011;63554;48.940;12.050;2022-12-18T15:51:40;1.98;;;1.88;;
75007;SDS011;63554;48.940;12.050;2022-12-18T15:55:46;1.48;;;1.38;;
75007;SDS011;63554;48.940;12.050;2022-12-18T16:00:10;2.53;;;0.98;;
75007;SDS011;63554;48.940;12.050;2022-12-18T16:04:15;2.38;;;2.28;;
75007;SDS011;63554;48.940;12.050;2022-12-18T16:08:19;0.88;;;0.88;;
75007;SDS011;63554;48.940;12.050;2022-12-18T16:12:23;1.17;;;0.50;;
75007;SDS011;63554;48.940;12.050;2022-12-18T16:16:26;1.38;;;1.00;;
75007;SDS011;63554;48.940;12.050;2022-12-18T16:20:30;1.35;;;1.30;;
75007;SDS011;63554;48.940;12.050;2022-12-18T16:24:33;0.90;;;0.90;;
75007;SDS011;63554;48.940;12.050;2022-12-18T16:28:38;3.72;;;3.50;;
75007;SDS011;63554;48.940;12.050;2022-12-18T16:32:48;7.68;;;2.85;;
75007;SDS011;63554;48.940;12.050;2022-12-18T16:36:51;1.45;;;1.40;;
75007;SDS011;63554;48.940;12.050;2022-12-18T16:45:21;0.98;;;0.98;;
75007;SDS011;63554;48.940;12.050;2022-12-18T16:49:23;3.03;;;1.35;;
75007;SDS011;63554;48.940;12.050;2022-12-18T16:53:26;0.45;;;0.40;;
75007;SDS011;63554;48.940;12.050;2022-12-18T16:57:30;1.35;;;1.23;;
75007;SDS011;63554;48.940;12.050;2022-12-18T17:01:34;2.45;;;2.03;;
75007;SDS011;63554;48.940;12.050;2022-12-18T17:05:37;1.45;;;1.35;;
75007;SDS011;63554;48.940;12.050;2022-12-18T17:09:39;0.95;;;0.90;;
75007;SDS011;63554;48.940;12.050;2022-12-18T17:13:42;1.27;;;1.27;;
75007;SDS011;63554;48.940;12.050;2022-12-18T17:17:47;1.83;;;1.38;;
75007;SDS011;63554;48.940;12.050;2022-12-18T17:21:50;1.00;;;1.00;;
75007;SDS011;63554;48.940;12.050;2022-12-18T17:25:53;2.53;;;2.08;;
75007;SDS011;63554;48.940;12.050;2022-12-18T17:29:57;5.95;;;1.50;;
75007;SDS011;63554;48.940;12.050;2022-12-18T17:34:01;2.00;;;1.90;;
75007;SDS011;63554;48.940;12.050;2022-12-18T17:38:04;1.77;;;1.65;;
75007;SDS011;63554;48.940;12.050;2022-12-18T17:42:07;0.98;;;0.98;;
75007;SDS011;63554;48.940;12.050;2022-12-18T17:46:15;2.50;;;2.38;;
75007;SDS011;63554;48.940;12.050;2022-12-18T17:50:19;2.53;;;2.33;;
75007;SDS011;63554;48.940;12.050;2022-12-18T17:54:22;2.60;;;2.40;;
75007;SDS011;63554;48.940;12.050;2022-12-18T17:58:25;3.45;;;3.15;;
75007;SDS011;63554;48.940;12.050;2022-12-18T18:02:28;1.92;;;1.77;;
75007;SDS011;63554;48.940;12.050;2022-12-18T18:06:33;4.60;;;3.10;;
75007;SDS011;63554;48.940;12.050;2022-12-18T18:10:39;3.53;;;3.33;;
75007;SDS011;63554;48.940;12.050;2022-12-18T18:14:42;3.85;;;0.88;;
75007;SDS011;63554;48.940;12.050;2022-12-18T18:18:45;1.05;;;1.05;;
75007;SDS011;63554;48.940;12.050;2022-12-18T18:22:50;0.50;;;0.50;;
75007;SDS011;63554;48.940;12.050;2022-12-18T18:26:55;1.17;;;1.08;;
75007;SDS011;63554;48.940;12.050;2022-12-18T18:31:02;0.93;;;0.93;;
75007;SDS011;63554;48.940;12.050;2022-12-18T18:35:06;1.55;;;1.45;;
75007;SDS011;63554;48.940;12.050;2022-12-18T18:39:31;0.80;;;0.77;;
75007;SDS011;63554;48.940;12.050;2022-12-18T18:43:33;0.52;;;0.52;;
75007;SDS011;63554;48.940;12.050;2022-12-18T18:47:37;1.13;;;1.02;;
75007;SDS011;63554;48.940;12.050;2022-12-18T18:51:39;0.25;;;0.25;;
75007;SDS011;63554;48.940;12.050;2022-12-18T18:55:44;0.00;;;0.00;;
75007;SDS011;63554;48.940;12.050;2022-12-18T19:00:04;0.10;;;0.10;;
75007;SDS011;63554;48.940;12.050;2022-12-18T19:04:08;0.17;;;0.15;;
75007;SDS011;63554;48.940;12.050;2022-12-18T19:08:11;0.93;;;0.93;;
75007;SDS011;63554;48.940;12.050;2022-12-18T19:12:18;1.10;;;1.10;;
75007;SDS011;63554;48.940;12.050;2022-12-18T19:16:40;0.50;;;0.50;;
75007;SDS011;63554;48.940;12.050;2022-12-18T19:20:53;0.57;;;0.57;;
75007;SDS011;63554;48.940;12.050;2022-12-18T19:24:56;0.85;;;0.85;;
75007;SDS011;63554;48.940;12.050;2022-12-18T19:29:01;0.95;;;0.95;;
75007;SDS011;63554;48.940;12.050;2022-12-18T19:33:04;2.95;;;2.75;;
75007;SDS011;63554;48.940;12.050;2022-12-18T19:37:27;2.40;;;1.15;;
75007;SDS011;63554;48.940;12.050;2022-12-18T19:41:30;0.45;;;0.38;;
75007;SDS011;63554;48.940;12.050;2022-12-18T19:45:36;1.58;;;1.13;;
75007;SDS011;63554;48.940;12.050;2022-12-18T19:49:40;0.15;;;0.15;;
75007;SDS011;63554;48.940;12.050;2022-12-18T19:53:42;4.72;;;2.60;;
75007;SDS011;63554;48.940;12.050;2022-12-18T19:57:46;6.63;;;1.63;;
75007;SDS011;63554;48.940;12.050;2022-12-18T20:01:50;1.10;;;1.00;;
75007;SDS011;63554;48.940;12.050;2022-12-18T20:05:55;0.55;;;0.55;;
75007;SDS011;63554;48.940;12.050;2022-12-18T20:09:58;3.40;;;0.88;;
75007;SDS011;63554;48.940;12.050;2022-12-18T20:14:09;2.00;;;1.90;;
75007;SDS011;63554;48.940;12.050;2022-12-18T20:18:14;1.25;;;1.08;;
75007;SDS011;63554;48.940;12.050;2022-12-18T20:22:17;4.43;;;3.45;;
75007;SDS011;63554;48.940;12.050;2022-12-18T20:26:20;0.88;;;0.88;;
75007;SDS011;63554;48.940;12.050;2022-12-18T20:30:23;4.85;;;1.92;;
75007;SDS011;63554;48.940;12.050;2022-12-18T20:34:27;4.03;;;2.90;;
75007;SDS011;63554;48.940;12.050;2022-12-18T20:38:31;1.05;;;1.05;;
75007;SDS011;63554;48.940;12.050;2022-12-18T20:42:35;0.28;;;0.28;;
75007;SDS011;63554;48.940;12.050;2022-12-18T20:46:38;2.33;;;2.17;;
75007;SDS011;63554;48.940;12.050;2022-12-18T20:50:42;2.25;;;0.73;;
75007;SDS011;63554;48.940;12.050;2022-12-18T20:54:44;1.58;;;1.50;;
75007;SDS011;63554;48.940;12.050;2022-12-18T20:58:47;0.85;;;0.85;;
75007;SDS011;63554;48.940;12.050;2022-12-18T21:02:55;1.40;;;1.38;;
75007;SDS011;63554;48.940;12.050;2022-12-18T21:06:59;0.73;;;0.63;;
75007;SDS011;63554;48.940;12.050;2022-12-18T21:11:12;0.35;;;0.35;;
75007;SDS011;63554;48.940;12.050;2022-12-18T21:15:31;1.83;;;1.55;;
75007;SDS011;63554;48.940;12.050;2022-12-18T21:19:33;2.03;;;1.58;;
75007;SDS011;63554;48.940;12.050;2022-12-18T21:23:38;0.70;;;0.70;;
75007;SDS011;63554;48.940;12.050;2022-12-18T21:27:40;1.60;;;0.98;;
75007;SDS011;63554;48.940;12.050;2022-12-18T21:31:43;2.20;;;2.08;;
75007;SDS011;63554;48.940;12.050;2022-12-18T21:35:46;0.25;;;0.25;;
75007;SDS011;63554;48.940;12.050;2022-12-18T21:39:50;1.08;;;1.08;;
75007;SDS011;63554;48.940;12.050;2022-12-18T21:43:53;1.20;;;1.10;;
75007;SDS011;63554;48.940;12.050;2022-12-18T21:48:08;0.80;;;0.80;;
75007;SDS011;63554;48.940;12.050;2022-12-18T21:52:12;2.25;;;2.15;;
75007;SDS011;63554;48.940;12.050;2022-12-18T21:56:16;0.70;;;0.70;;
75007;SDS011;63554;48.940;12.050;2022-12-18T22:00:19;0.35;;;0.35;;
75007;SDS011;63554;48.940;12.050;2022-12-18T22:04:22;1.55;;;1.45;;
75007;SDS011;63554;48.940;12.050;2022-12-18T22:08:26;2.80;;;1.50;;
75007;SDS011;63554;48.940;12.050;2022-12-18T22:12:30;2.38;;;1.48;;
75007;SDS011;63554;48.940;12.050;2022-12-18T22:16:45;0.82;;;0.80;;
75007;SDS011;63554;48.940;12.050;2022-12-18T22:20:58;0.30;;;0.30;;
75007;SDS011;63554;48.940;12.050;2022-12-18T22:25:02;1.23;;;1.23;;
75007;SDS011;63554;48.940;12.050;2022-12-18T22:29:06;2.22;;;1.88;;
75007;SDS011;63554;48.940;12.050;2022-12-18T22:33:44;0.88;;;0.70;;
75007;SDS011;63554;48.940;12.050;2022-12-18T22:37:47;2.88;;;0.80;;
75007;SDS011;63554;48.940;12.050;2022-12-18T22:41:49;2.42;;;0.95;;
75007;SDS011;63554;48.940;12.050;2022-12-18T22:45:54;1.40;;;1.33;;
75007;SDS011;63554;48.940;12.050;2022-12-18T22:49:57;0.10;;;0.10;;
75007;SDS011;63554;48.940;12.050;2022-12-18T22:54:00;2.00;;;1.63;;
75007;SDS011;63554;48.940;12.050;2022-12-18T22:58:02;1.25;;;1.15;;
75007;SDS011;63554;48.940;12.050;2022-12-18T23:02:06;3.25;;;2.05;;
75007;SDS011;63554;48.940;12.050;2022-12-18T23:06:09;0.47;;;0.47;;
75007;SDS011;63554;48.940;12.050;2022-12-18T23:10:12;1.38;;;1.35;;
75007;SDS011;63554;48.940;12.050;2022-12-18T23:14:15;0.75;;;0.75;;
75007;SDS011;63554;48.940;12.050;2022-12-18T23:18:19;6.00;;;2.30;;
75007;SDS011;63554;48.940;12.050;2022-12-18T23:22:22;2.15;;;2.00;;
75007;SDS011;63554;48.940;12.050;2022-12-18T23:26:25;0.75;;;0.75;;
75007;SDS011;63554;48.940;12.050;2022-12-18T23:30:28;0.55;;;0.55;;
75007;SDS011;63554;48.940;12.050;2022-12-18T23:34:34;0.63;;;0.63;;
75007;SDS011;63554;48.940;12.050;2022-12-18T23:38:36;2.53;;;0.88;;
75007;SDS011;63554;48.940;12.050;2022-12-18T23:42:40;1.50;;;1.38;;
75007;SDS011;63554;48.940;12.050;2022-12-18T23:46:42;0.20;;;0.20;;
75007;SDS011;63554;48.940;12.050;2022-12-18T23:50:46;1.00;;;0.63;;
75007;SDS011;63554;48.940;12.050;2022-12-18T23:54:49;2.38;;;1.70;;
75007;SDS011;63554;48.940;12.050;2022-12-18T23:58:52;1.55;;;1.42;;
